createdAt,value
2023-04-12T00:03:36.605Z,10.50
2023-04-12T00:06:07.381Z,12.90
2023-04-12T00:08:37.406Z,13.80
2023-04-12T00:11:06.341Z,14.00
2023-04-12T00:13:35.473Z,15.30
2023-04-12T00:16:05.508Z,15.70
2023-04-12T00:18:33.712Z,14.20
2023-04-12T00:21:02.473Z,14.40
2023-04-12T00:23:31.334Z,15.00
2023-04-12T00:25:59.957Z,16.10
2023-04-12T00:28:28.725Z,15.30
2023-04-12T00:30:58.479Z,16.70
2023-04-12T00:33:27.399Z,15.50
2023-04-12T00:35:56.229Z,16.40
2023-04-12T00:38:25.281Z,17.10
2023-04-12T00:40:53.817Z,17.00
2023-04-12T00:43:22.677Z,16.40
2023-04-12T00:45:51.539Z,16.50
2023-04-12T00:48:20.950Z,16.70
2023-04-12T00:50:50.046Z,16.10
2023-04-12T00:53:19.254Z,16.20
2023-04-12T00:55:50.373Z,16.10
2023-04-12T00:58:20.275Z,16.50
2023-04-12T01:00:49.208Z,18.10
2023-04-12T01:03:22.369Z,17.70
2023-04-12T01:05:55.988Z,18.30
2023-04-12T01:08:24.158Z,17.50
2023-04-12T01:11:05.802Z,20.30
2023-04-12T01:13:59.712Z,20.20
2023-04-12T01:16:36.128Z,18.70
2023-04-12T01:19:18.564Z,19.60
2023-04-12T01:22:02.275Z,19.50
2023-04-12T01:24:55.640Z,20.00
2023-04-12T01:27:53.514Z,19.90
2023-04-12T01:30:26.823Z,17.90
2023-04-12T01:32:59.808Z,17.40
2023-04-12T01:35:34.967Z,19.50
2023-04-12T01:38:04.680Z,18.70
2023-04-12T01:40:36.211Z,19.30
2023-04-12T01:43:05.178Z,18.60
2023-04-12T01:45:34.785Z,18.60
2023-04-12T01:48:06.400Z,18.90
2023-04-12T01:50:38.324Z,16.50
2023-04-12T01:53:14.604Z,14.70
2023-04-12T01:55:45.536Z,13.80
2023-04-12T01:58:17.732Z,11.70
2023-04-12T02:00:47.064Z,12.60
2023-04-12T02:03:15.710Z,14.00
2023-04-12T02:05:45.339Z,15.00
2023-04-12T02:08:14.435Z,16.00
2023-04-12T02:10:44.403Z,18.00
2023-04-12T02:13:13.207Z,18.90
2023-04-12T02:15:41.329Z,19.50
2023-04-12T02:18:10.750Z,18.40
2023-04-12T02:20:39.832Z,19.30
2023-04-12T02:23:08.004Z,16.90
2023-04-12T02:25:36.449Z,16.90
2023-04-12T02:28:05.556Z,16.80
2023-04-12T02:30:33.867Z,16.40
2023-04-12T02:33:02.578Z,17.20
2023-04-12T02:35:33.636Z,18.40
2023-04-12T02:38:03.009Z,16.90
2023-04-12T02:40:31.578Z,17.60
2023-04-12T02:43:00.951Z,16.80
2023-04-12T02:45:29.573Z,15.50
2023-04-12T02:47:57.978Z,15.10
2023-04-12T02:50:26.758Z,16.70
2023-04-12T02:52:55.436Z,14.90
2023-04-12T02:55:23.601Z,14.40
2023-04-12T02:57:51.794Z,14.20
2023-04-12T03:00:20.534Z,14.30
2023-04-12T03:02:50.165Z,15.10
2023-04-12T03:05:22.772Z,15.80
2023-04-12T03:07:51.364Z,14.30
2023-04-12T03:10:19.529Z,14.70
2023-04-12T03:12:48.310Z,13.90
2023-04-12T03:15:16.462Z,13.00
2023-04-12T03:17:44.821Z,12.40
2023-04-12T03:20:13.884Z,12.20
2023-04-12T03:22:42.080Z,14.10
2023-04-12T03:25:10.558Z,15.40
2023-04-12T03:27:38.756Z,16.40
2023-04-12T03:30:08.697Z,15.90
2023-04-12T03:32:36.873Z,16.50
2023-04-12T03:35:06.263Z,16.50
2023-04-12T03:37:35.176Z,18.70
2023-04-12T03:40:03.582Z,19.60
2023-04-12T03:42:33.764Z,20.90
2023-04-12T03:45:03.105Z,21.00
2023-04-12T03:47:32.153Z,21.10
2023-04-12T03:50:11.631Z,23.00
2023-04-12T03:52:41.003Z,22.40
2023-04-12T03:55:09.360Z,23.30
2023-04-12T03:57:37.565Z,23.20
2023-04-12T04:00:07.525Z,24.60
2023-04-12T04:02:36.453Z,25.30
2023-04-12T04:05:06.042Z,24.10
2023-04-12T04:07:34.164Z,24.30
2023-04-12T04:10:03.068Z,24.60
2023-04-12T04:12:31.684Z,24.40
2023-04-12T04:14:59.873Z,23.80
2023-04-12T04:17:28.441Z,23.30
2023-04-12T04:19:57.077Z,24.60
2023-04-12T04:22:25.648Z,24.80
2023-04-12T04:24:54.634Z,26.10
2023-04-12T04:27:23.593Z,25.50
2023-04-12T04:29:52.789Z,24.40
2023-04-12T04:32:21.566Z,24.40
2023-04-12T04:34:50.362Z,26.10
2023-04-12T04:37:19.134Z,27.30
2023-04-12T04:39:47.942Z,26.10
2023-04-12T04:42:17.471Z,25.10
2023-04-12T04:44:46.722Z,24.40
2023-04-12T04:47:14.769Z,24.50
2023-04-12T04:49:45.207Z,23.90
2023-04-12T04:52:14.643Z,21.40
2023-04-12T04:54:43.251Z,20.60
2023-04-12T04:57:11.397Z,18.80
2023-04-12T04:59:39.503Z,16.10
2023-04-12T05:02:08.614Z,14.80
2023-04-12T05:04:37.970Z,12.70
2023-04-12T05:07:06.129Z,10.60
2023-04-12T05:09:34.709Z,9.00
2023-04-12T05:12:03.095Z,9.40
2023-04-12T05:14:45.476Z,8.70
2023-04-12T05:17:15.774Z,8.20
2023-04-12T05:19:44.069Z,6.80
2023-04-12T05:22:12.962Z,6.10
2023-04-12T05:24:41.677Z,6.20
2023-04-12T05:27:09.789Z,5.70
2023-04-12T05:29:38.371Z,6.30
2023-04-12T05:32:06.809Z,5.20
2023-04-12T05:34:35.101Z,6.40
2023-04-12T05:37:04.616Z,5.50
2023-04-12T05:39:33.974Z,5.90
2023-04-12T05:42:02.556Z,5.70
2023-04-12T05:44:31.146Z,5.60
2023-04-12T05:46:59.730Z,5.60
2023-04-12T05:49:30.457Z,4.90
2023-04-12T05:51:59.126Z,4.60
2023-04-12T05:54:27.637Z,5.30
2023-04-12T05:56:56.225Z,5.50
2023-04-12T05:59:24.868Z,4.30
2023-04-12T06:01:54.080Z,4.80
2023-04-12T06:04:22.846Z,5.30
2023-04-12T06:06:52.214Z,4.80
2023-04-12T06:09:21.154Z,4.80
2023-04-12T06:11:49.454Z,5.20
2023-04-12T06:14:18.091Z,4.20
2023-04-12T06:16:46.954Z,5.50
2023-04-12T06:19:16.031Z,4.40
2023-04-12T06:21:44.763Z,3.80
2023-04-12T06:24:13.144Z,2.80
2023-04-12T06:26:42.553Z,3.20
2023-04-12T06:29:10.715Z,3.10
2023-04-12T06:31:40.408Z,2.80
2023-04-12T06:34:09.804Z,2.60
2023-04-12T06:36:38.194Z,2.70
2023-04-12T06:39:07.411Z,2.90
2023-04-12T06:41:35.953Z,2.40
2023-04-12T06:44:04.225Z,2.80
2023-04-12T06:46:33.179Z,2.70
2023-04-12T06:49:01.742Z,2.30
2023-04-12T06:51:31.135Z,2.40
2023-04-12T06:54:00.077Z,2.90
2023-04-12T06:56:28.734Z,3.00
2023-04-12T06:58:57.044Z,2.80
2023-04-12T07:01:26.467Z,3.30
2023-04-12T07:03:54.785Z,3.10
2023-04-12T07:06:26.115Z,3.20
2023-04-12T07:08:55.008Z,3.90
2023-04-12T07:11:23.756Z,3.30
2023-04-12T07:13:53.175Z,2.50
2023-04-12T07:16:21.662Z,2.10
2023-04-12T07:18:49.988Z,1.60
2023-04-12T07:21:18.955Z,1.30
2023-04-12T07:23:51.947Z,1.30
2023-04-12T07:26:20.496Z,1.60
2023-04-12T07:28:49.197Z,1.10
2023-04-12T07:31:17.803Z,1.40
2023-04-12T07:33:46.684Z,2.90
2023-04-12T07:36:16.540Z,2.80
2023-04-12T07:38:45.832Z,2.70
2023-04-12T07:41:14.636Z,2.70
2023-04-12T07:43:43.138Z,2.40
2023-04-12T07:46:12.855Z,2.40
2023-04-12T07:48:41.419Z,2.50
2023-04-12T07:51:10.513Z,2.40
2023-04-12T07:53:39.320Z,3.00
2023-04-12T07:56:08.610Z,3.00
2023-04-12T07:58:36.668Z,2.80
2023-04-12T08:01:06.253Z,3.40
2023-04-12T08:03:35.603Z,4.10
2023-04-12T08:06:05.938Z,3.50
2023-04-12T08:08:35.139Z,3.90
2023-04-12T08:11:04.422Z,3.70
2023-04-12T08:13:34.595Z,3.80
2023-04-12T08:16:03.350Z,3.30
2023-04-12T08:18:31.743Z,3.90
2023-04-12T08:20:59.829Z,4.00
2023-04-12T08:23:29.958Z,4.60
2023-04-12T08:25:58.121Z,4.90
2023-04-12T08:28:26.439Z,4.20
2023-04-12T08:30:54.677Z,4.20
2023-04-12T08:33:23.356Z,2.60
2023-04-12T08:35:52.108Z,3.10
2023-04-12T08:38:25.416Z,2.90
2023-04-12T08:40:59.990Z,2.90
2023-04-12T08:43:29.905Z,2.90
2023-04-12T08:45:59.459Z,3.30
2023-04-12T08:48:28.502Z,3.70
2023-04-12T08:50:57.629Z,4.20
2023-04-12T08:53:27.428Z,4.00
2023-04-12T08:55:56.286Z,3.60
2023-04-12T08:58:25.542Z,3.80
2023-04-12T09:00:54.665Z,4.90
2023-04-12T09:03:23.553Z,4.80
2023-04-12T09:05:52.362Z,4.40
2023-04-12T09:08:20.988Z,5.40
2023-04-12T09:10:49.537Z,4.70
2023-04-12T09:13:32.284Z,4.20
2023-04-12T09:16:02.304Z,4.90
2023-04-12T09:18:49.176Z,4.80
2023-04-12T09:21:18.659Z,4.90
2023-04-12T09:24:13.371Z,4.20
2023-04-12T09:26:43.056Z,4.50
2023-04-12T09:29:24.718Z,3.80
2023-04-12T09:32:03.093Z,3.80
2023-04-12T09:34:33.716Z,4.50
2023-04-12T09:37:16.238Z,4.90
2023-04-12T09:39:45.123Z,4.80
2023-04-12T09:42:29.835Z,5.40
2023-04-12T09:45:02.047Z,5.60
2023-04-12T09:47:40.700Z,6.50
2023-04-12T09:50:10.237Z,5.90
2023-04-12T09:52:39.551Z,6.60
2023-04-12T09:55:12.674Z,5.70
2023-04-12T09:57:45.110Z,5.50
2023-04-12T10:00:14.959Z,5.60
2023-04-12T10:02:47.701Z,7.60
2023-04-12T10:05:24.531Z,7.60
2023-04-12T10:07:54.963Z,9.00
2023-04-12T10:10:24.108Z,8.40
2023-04-12T10:12:54.107Z,8.90
2023-04-12T10:15:22.278Z,9.40
2023-04-12T10:17:53.368Z,10.70
2023-04-12T10:20:24.869Z,12.50
2023-04-12T10:22:57.277Z,12.30
2023-04-12T10:25:27.572Z,11.50
2023-04-12T10:27:56.801Z,14.70
2023-04-12T10:30:26.525Z,15.40
2023-04-12T10:33:04.613Z,18.10
2023-04-12T10:36:01.279Z,17.50
2023-04-12T10:38:44.766Z,19.30
2023-04-12T10:41:20.865Z,18.30
2023-04-12T10:43:51.421Z,17.80
2023-04-12T10:46:45.984Z,17.50
2023-04-12T10:49:15.690Z,16.70
2023-04-12T10:52:12.507Z,16.60
2023-04-12T10:54:41.175Z,15.20
2023-04-12T10:57:45.526Z,15.50
2023-04-12T11:00:15.035Z,14.00
2023-04-12T11:03:08.850Z,14.10
2023-04-12T11:05:57.421Z,13.10
2023-04-12T11:08:27.416Z,13.50
2023-04-12T11:11:03.230Z,12.20
2023-04-12T11:13:39.443Z,12.30
2023-04-12T11:16:08.362Z,11.90
2023-04-12T11:18:37.383Z,11.10
2023-04-12T11:21:06.600Z,9.90
2023-04-12T11:23:35.598Z,9.00
2023-04-12T11:26:04.396Z,8.40
2023-04-12T11:28:34.744Z,7.50
2023-04-12T11:31:04.246Z,8.40
2023-04-12T11:33:39.629Z,8.30
2023-04-12T11:36:11.684Z,7.10
2023-04-12T11:38:40.529Z,6.10
2023-04-12T11:41:09.562Z,5.10
2023-04-12T11:43:38.766Z,5.70
2023-04-12T11:46:08.004Z,6.80
2023-04-12T11:48:36.858Z,7.90
2023-04-12T11:51:22.318Z,7.50
2023-04-12T11:53:55.456Z,8.00
2023-04-12T11:56:24.638Z,8.10
2023-04-12T11:58:52.658Z,8.30
2023-04-12T12:01:23.019Z,8.70
2023-04-12T12:03:52.024Z,8.40
2023-04-12T12:06:21.775Z,8.80
2023-04-12T12:08:51.426Z,8.60
2023-04-12T12:11:23.820Z,8.70
2023-04-12T12:13:54.613Z,8.10
2023-04-12T12:16:27.855Z,7.80
2023-04-12T12:18:57.970Z,6.80
2023-04-12T12:21:26.481Z,8.70
2023-04-12T12:23:57.139Z,8.00
2023-04-12T12:26:27.941Z,7.50
2023-04-12T12:28:58.257Z,7.50
2023-04-12T12:31:28.381Z,7.80
2023-04-12T12:33:59.460Z,7.90
2023-04-12T12:36:33.483Z,6.70
2023-04-12T12:39:13.073Z,7.40
2023-04-12T12:41:42.438Z,6.80
2023-04-12T12:44:11.749Z,7.30
2023-04-12T12:46:53.471Z,7.70
2023-04-12T12:49:23.583Z,7.00
2023-04-12T12:51:52.554Z,8.50
2023-04-12T12:54:38.644Z,7.10
2023-04-12T12:57:11.139Z,7.00
2023-04-12T12:59:42.897Z,7.90
2023-04-12T13:02:11.371Z,7.90
2023-04-12T13:04:40.319Z,7.80
2023-04-12T13:07:08.526Z,7.30
2023-04-12T13:09:36.717Z,7.20
2023-04-12T13:12:05.207Z,7.80
2023-04-12T13:14:33.463Z,7.90
2023-04-12T13:17:02.364Z,6.90
2023-04-12T13:19:30.874Z,6.90
2023-04-12T13:21:59.707Z,7.40
2023-04-12T13:24:28.457Z,6.80
2023-04-12T13:26:56.962Z,7.10
2023-04-12T13:29:25.627Z,7.60
2023-04-12T13:31:55.153Z,7.10
2023-04-12T13:34:23.851Z,7.20
2023-04-12T13:36:52.062Z,7.30
2023-04-12T13:39:21.306Z,7.80
2023-04-12T13:41:49.447Z,7.70
2023-04-12T13:44:18.015Z,7.80
2023-04-12T13:46:47.013Z,7.50
2023-04-12T13:49:15.702Z,6.80
2023-04-12T13:51:44.389Z,7.90
2023-04-12T13:54:12.774Z,7.10
2023-04-12T13:56:41.046Z,7.10
2023-04-12T13:59:09.764Z,7.30
2023-04-12T14:01:40.101Z,6.70
2023-04-12T14:04:09.036Z,5.70
2023-04-12T14:06:39.095Z,6.20
2023-04-12T14:09:07.749Z,6.40
2023-04-12T14:11:47.406Z,6.00
2023-04-12T14:14:16.802Z,6.30
2023-04-12T14:16:46.687Z,5.90
2023-04-12T14:19:16.504Z,6.40
2023-04-12T14:21:45.660Z,5.80
2023-04-12T14:24:19.122Z,4.60
2023-04-12T14:26:48.421Z,4.70
2023-04-12T14:29:17.251Z,4.30
2023-04-12T14:31:46.921Z,4.10
2023-04-12T14:34:15.332Z,3.80
2023-04-12T14:36:43.970Z,4.80
2023-04-12T14:39:14.053Z,4.80
2023-04-12T14:41:43.328Z,4.40
2023-04-12T14:44:12.027Z,4.50
2023-04-12T14:46:40.860Z,4.40
2023-04-12T14:49:09.124Z,4.50
2023-04-12T14:51:37.805Z,4.70
2023-04-12T14:54:07.193Z,4.90
2023-04-12T14:56:44.574Z,5.00
2023-04-12T14:59:19.352Z,5.20
2023-04-12T15:01:48.050Z,5.00
2023-04-12T15:04:17.170Z,5.10
2023-04-12T15:06:45.646Z,4.90
2023-04-12T15:09:14.712Z,5.40
2023-04-12T15:11:43.853Z,5.10
2023-04-12T15:14:15.219Z,4.90
2023-04-12T15:16:45.837Z,5.40
2023-04-12T15:19:20.212Z,5.80
2023-04-12T15:21:53.250Z,5.80
2023-04-12T15:24:22.753Z,5.30
2023-04-12T15:26:52.856Z,5.50
2023-04-12T15:29:21.670Z,5.00
2023-04-12T15:31:50.529Z,5.30
2023-04-12T15:34:19.360Z,5.80
2023-04-12T15:36:49.217Z,5.20
2023-04-12T15:39:19.604Z,5.90
2023-04-12T15:41:48.273Z,5.80
2023-04-12T15:44:16.659Z,5.50
2023-04-12T15:46:53.289Z,6.30
2023-04-12T15:49:28.766Z,6.10
2023-04-12T15:51:56.995Z,5.90
2023-04-12T15:54:26.320Z,5.30
2023-04-12T15:56:55.002Z,5.10
2023-04-12T15:59:23.706Z,5.70
2023-04-12T16:01:53.165Z,5.80
2023-04-12T16:04:22.784Z,4.60
2023-04-12T16:06:51.337Z,5.30
2023-04-12T16:09:20.824Z,5.00
2023-04-12T16:11:50.166Z,5.50
2023-04-12T16:14:20.091Z,5.40
2023-04-12T16:16:48.758Z,5.00
2023-04-12T16:19:18.554Z,4.90
2023-04-12T16:21:47.645Z,5.30
2023-04-12T16:24:16.551Z,5.90
2023-04-12T16:26:45.387Z,4.80
2023-04-12T16:29:14.693Z,4.90
2023-04-12T16:31:43.417Z,5.00
2023-04-12T16:34:12.345Z,6.10
2023-04-12T16:36:41.816Z,5.70
2023-04-12T16:39:10.560Z,5.30
2023-04-12T16:41:40.012Z,6.00
2023-04-12T16:44:09.002Z,7.00
2023-04-12T16:46:38.545Z,7.80
2023-04-12T16:49:06.873Z,6.70
2023-04-12T16:51:37.513Z,6.50
2023-04-12T16:54:06.315Z,6.40
2023-04-12T16:56:34.898Z,6.20
2023-04-12T16:59:03.876Z,6.90
2023-04-12T17:01:31.923Z,7.20
2023-04-12T17:04:01.734Z,6.00
2023-04-12T17:06:31.495Z,6.00
2023-04-12T17:09:00.635Z,6.50
2023-04-12T17:11:28.887Z,6.90
2023-04-12T17:13:57.811Z,7.10
2023-04-12T17:16:26.355Z,6.90
2023-04-12T17:18:55.001Z,6.50
2023-04-12T17:21:24.287Z,6.50
2023-04-12T17:23:53.648Z,7.10
2023-04-12T17:26:23.108Z,6.30
2023-04-12T17:28:52.236Z,6.70
2023-04-12T17:31:21.922Z,6.80
2023-04-12T17:33:50.759Z,6.90
2023-04-12T17:36:20.839Z,7.20
2023-04-12T17:38:49.513Z,6.60
2023-04-12T17:41:17.902Z,7.30
2023-04-12T17:43:47.265Z,6.60
2023-04-12T17:46:16.106Z,7.10
2023-04-12T17:48:44.431Z,6.60
2023-04-12T17:51:13.492Z,7.20
2023-04-12T17:53:42.603Z,6.60
2023-04-12T17:56:11.533Z,6.80
2023-04-12T17:58:39.850Z,6.60
2023-04-12T18:01:08.534Z,7.10
2023-04-12T18:03:40.298Z,5.90
2023-04-12T18:06:08.724Z,5.20
2023-04-12T18:08:37.719Z,5.10
2023-04-12T18:11:07.175Z,5.70
2023-04-12T18:13:35.250Z,3.80
2023-04-12T18:16:04.640Z,3.90
2023-04-12T18:18:34.191Z,3.20
2023-04-12T18:21:04.774Z,3.90
2023-04-12T18:23:34.141Z,2.50
2023-04-12T18:26:05.528Z,1.90
2023-04-12T18:28:34.543Z,2.00
2023-04-12T18:31:02.696Z,1.20
2023-04-12T18:33:32.080Z,1.20
2023-04-12T18:36:00.786Z,1.60
2023-04-12T18:38:29.018Z,1.60
2023-04-12T18:40:57.213Z,2.20
2023-04-12T18:43:26.031Z,2.20
2023-04-12T18:45:55.160Z,1.50
2023-04-12T18:48:23.998Z,1.90
2023-04-12T18:50:52.773Z,1.50
2023-04-12T18:53:20.921Z,1.40
2023-04-12T18:55:49.138Z,1.30
2023-04-12T18:58:17.329Z,1.20
2023-04-12T19:00:45.626Z,1.00
2023-04-12T19:03:14.193Z,0.90
2023-04-12T19:05:44.100Z,1.40
2023-04-12T19:08:12.728Z,1.20
2023-04-12T19:10:41.732Z,0.90
2023-04-12T19:13:10.436Z,1.20
2023-04-12T19:15:38.758Z,1.20
2023-04-12T19:18:07.499Z,1.20
2023-04-12T19:20:36.271Z,0.90
2023-04-12T19:23:06.618Z,1.50
2023-04-12T19:25:35.378Z,1.10
2023-04-12T19:28:04.313Z,0.90
2023-04-12T19:30:33.623Z,0.90
2023-04-12T19:33:02.070Z,1.10
2023-04-12T19:35:32.277Z,1.10
2023-04-12T19:38:04.747Z,1.20
2023-04-12T19:40:33.517Z,1.00
2023-04-12T19:43:01.823Z,1.20
2023-04-12T19:45:30.207Z,1.00
2023-04-12T19:47:58.995Z,1.00
2023-04-12T19:50:27.372Z,1.00
2023-04-12T19:52:56.352Z,0.90
2023-04-12T19:55:25.337Z,1.50
2023-04-12T19:57:54.626Z,2.60
2023-04-12T20:00:23.366Z,1.20
2023-04-12T20:02:54.623Z,1.10
2023-04-12T20:05:23.974Z,1.00
2023-04-12T20:07:52.874Z,1.20
2023-04-12T20:10:23.030Z,0.90
2023-04-12T20:12:51.287Z,0.90
2023-04-12T20:15:20.774Z,1.30
2023-04-12T20:17:50.234Z,0.70
2023-04-12T20:20:19.207Z,1.50
2023-04-12T20:22:48.910Z,1.50
2023-04-12T20:25:18.695Z,0.80
2023-04-12T20:27:47.922Z,1.10
2023-04-12T20:30:16.603Z,0.80
2023-04-12T20:32:45.293Z,0.90
2023-04-12T20:35:13.844Z,0.70
2023-04-12T20:37:42.638Z,0.70
2023-04-12T20:40:12.014Z,0.70
2023-04-12T20:42:40.630Z,0.80
2023-04-12T20:45:09.717Z,0.90
2023-04-12T20:47:38.321Z,0.60
2023-04-12T20:50:07.545Z,0.80
2023-04-12T20:52:37.145Z,0.80
2023-04-12T20:55:06.715Z,0.70
2023-04-12T20:57:35.301Z,0.60
2023-04-12T21:00:03.913Z,1.40
2023-04-12T21:02:33.849Z,0.80
2023-04-12T21:05:02.079Z,1.00
2023-04-12T21:07:30.885Z,0.90
2023-04-12T21:10:00.607Z,1.10
2023-04-12T21:12:29.290Z,0.60
2023-04-12T21:14:57.635Z,0.60
2023-04-12T21:17:26.667Z,0.70
2023-04-12T21:19:55.581Z,0.70
2023-04-12T21:22:24.489Z,0.70
2023-04-12T21:24:53.264Z,0.70
2023-04-12T21:27:21.274Z,0.90
2023-04-12T21:29:49.602Z,0.80
2023-04-12T21:32:18.299Z,0.70
2023-04-12T21:34:47.448Z,0.80
2023-04-12T21:37:16.197Z,0.80
2023-04-12T21:39:44.766Z,0.60
2023-04-12T21:42:13.830Z,0.90
2023-04-12T21:44:42.444Z,0.80
2023-04-12T21:47:11.026Z,0.60
2023-04-12T21:49:39.594Z,0.60
2023-04-12T21:52:08.872Z,0.60
2023-04-12T21:54:37.274Z,0.70
2023-04-12T21:57:05.992Z,0.60
2023-04-12T21:59:34.760Z,0.80
2023-04-12T22:02:04.729Z,1.00
2023-04-12T22:04:33.777Z,0.70
2023-04-12T22:07:03.162Z,0.70
2023-04-12T22:09:31.952Z,1.10
2023-04-12T22:12:01.678Z,0.90
2023-04-12T22:14:30.720Z,1.20
2023-04-12T22:16:59.216Z,0.70
2023-04-12T22:19:27.939Z,0.90
2023-04-12T22:21:56.243Z,1.10
2023-04-12T22:24:25.538Z,1.30
2023-04-12T22:26:53.782Z,1.00
2023-04-12T22:29:24.480Z,0.70
2023-04-12T22:31:53.005Z,0.70
2023-04-12T22:34:22.049Z,0.70
2023-04-12T22:36:51.238Z,0.70
2023-04-12T22:39:20.848Z,0.70
2023-04-12T22:41:50.752Z,0.80
2023-04-12T22:44:23.153Z,0.60
2023-04-12T22:46:54.412Z,0.70
2023-04-12T22:49:27.564Z,0.60
2023-04-12T22:51:56.827Z,0.90
2023-04-12T22:54:26.344Z,0.50
2023-04-12T22:56:54.715Z,0.50
2023-04-12T22:59:23.067Z,0.70
2023-04-12T23:01:51.769Z,0.60
2023-04-12T23:04:20.957Z,0.50
2023-04-12T23:06:53.544Z,0.60
2023-04-12T23:09:22.499Z,1.10
2023-04-12T23:11:50.816Z,0.50
2023-04-12T23:14:20.234Z,0.50
2023-04-12T23:16:49.474Z,0.50
2023-04-12T23:19:18.067Z,0.60
2023-04-12T23:21:47.428Z,0.60
2023-04-12T23:24:16.096Z,0.50
2023-04-12T23:26:44.423Z,0.50
2023-04-12T23:29:13.692Z,0.60
2023-04-12T23:31:42.829Z,0.60
2023-04-12T23:34:11.028Z,0.60
2023-04-12T23:36:39.621Z,0.60
2023-04-12T23:39:08.632Z,0.60
2023-04-12T23:41:37.433Z,0.50
2023-04-12T23:44:05.683Z,0.60
2023-04-12T23:46:34.970Z,0.50
2023-04-12T23:49:03.191Z,0.50
2023-04-12T23:51:31.744Z,0.40
2023-04-12T23:54:01.669Z,0.50
2023-04-12T23:56:30.374Z,0.60
2023-04-12T23:58:58.717Z,0.40
